METAR Germany / Deutschland - 12 Dec 2017 - 2348 UTC - RocketRoute WX - rrwx.com
EDDB 122320Z 21007KT 9999 BKN015 02/01 Q1013 TEMPO BKN014 EDDW 122320Z 22013KT 9999 BKN010 01/M00 Q1011 R88/290095 EDDC 122320Z 26009KT 220V280 9999 BKN035 BKN052 03/M02 Q1014 EDDL 122320Z 19009KT 9999 FEW035 02/M01 Q1014 NOSIG EDFH 122320Z 24009KT 9999 -SN BKN010 00/M01 Q1014 EDDF 122320Z 19005KT 9999 SCT028 M01/M02 Q1017 NOSIG EDDH 122320Z 22015KT 9000 OVC006 01/01 Q1010 NOSIG EDDV 122320Z 23007KT 9999 SCT017 02/M01 Q1012 EDAH   EDSB 122320Z AUTO 22006KT 9999 // FEW045/// BKN053/// OVC060/// 02/00 Q1018 EDVK 122320Z 17006KT 9999 FEW027 BKN044 01/M01 Q1013 EDDK 122320Z 17007KT 9999 FEW048 00/M02 Q1015 NOSIG ETNL 122320Z 24010KT 7000 BKN007 01/M00 Q1009 GRN EDDP 122320Z 23010KT 9999 FEW039 OVC060 02/M01 Q1014 NOSIG EDHL   EDDM 122320Z 20004KT 190V260 CAVOK 00/M02 Q1018 R88/190095 NOSIG EDDG 122320Z 18005KT 150V210 8000 BKN028 01/M00 Q1012 NOSIG EDDN 122320Z 23006KT 9999 FEW047 SCT076 00/M03 Q1017 EDLP 122320Z 22010KT 9999 SCT040 01/M01 Q1013 EDDR 122320Z AUTO 22009KT 9999 // SCT017/// 00/M01 Q1016 EDDS 122320Z VRB01KT 9999 FEW046 M01/M04 Q1017 EDXW   EDDT 122320Z 24008KT 9999 BKN010 02/01 Q1013

RocketRoute WX - rrwx.com weather for pilots